Terminal Aerodrome Forecast
Issued by NWS Quad Cities IA IL

Home | Current Version | Previous Version | Text Only | Print | Product List | Glossary On
Versions: 1 2 3 4 5 6 7 8 9 10 11 12 13 14
000
FTUS43 KDVN 121200 AAA
TAFDBQ
TAF AMD
KDBQ 121202Z 1212/1312 22005KT 6SM -RA BR VCTS BKN018CB OVC025
     FM121230 30010KT 3SM RA BR VCTS BKN010 OVC025CB
     FM121500 31006KT P6SM BKN060 OVC250
     FM122000 15005KT P6SM SCT060 BKN250
     FM122200 25007KT P6SM VCTS SCT030CB BKN250
     FM130130 33005KT 6SM -RA BR VCTS SCT030CB OVC070=

USA.gov is the U.S. government's official web portal to all federal, state and local government web resources and services.